Time;durP1;ratioP1;P1;durP2;ratioP2;P2;SDS_P1;SDS_P2;PMS_P1;PMS_P2;Temp;Humidity;BMP_temperature;BMP_pressure;BME280_temperature;BME280_humidity;BME280_pressure;Samples;Min_cycle;Max_cycle;Signal;HPM_P1;HPM_P2
2023/08/10 00:00:28;;;;;;;2.43;1.20;;;;;;;14.92;100.00;102086.94;5090104;28;19908;-37
2023/08/10 00:02:54;;;;;;;2.28;1.30;;;;;;;14.86;100.00;102068.81;5089777;28;20270;-37
2023/08/10 00:05:19;;;;;;;;;;;;;;;15.04;100.00;102085.13;5090398;28;20070;-37
2023/08/10 00:07:45;;;;;;;2.80;1.10;;;;;;;14.90;100.00;102086.38;5090275;28;19916;-37
2023/08/10 00:10:11;;;;;;;;;;;;;;;15.06;100.00;102087.59;5082933;28;20032;-40
2023/08/10 00:12:37;;;;;;;2.15;1.33;;;;;;;14.98;100.00;102088.75;5076432;28;19944;-37
2023/08/10 00:15:04;;;;;;;2.92;1.55;;;;;;;14.95;100.00;102097.41;5076625;28;20028;-37
2023/08/10 00:17:29;;;;;;;3.97;1.45;;;;;;;14.93;100.00;102086.75;5076485;28;20107;-37
2023/08/10 00:19:54;;;;;;;;;;;;;;;15.07;100.00;102090.09;5076999;28;20107;-37
2023/08/10 00:22:20;;;;;;;3.30;1.77;;;;;;;14.88;100.00;102077.56;5076841;28;19908;-37
2023/08/10 00:24:46;;;;;;;5.28;1.60;;;;;;;14.89;100.00;102088.25;5075975;28;20381;-37
2023/08/10 00:27:11;;;;;;;;;;;;;;;15.04;100.00;102084.31;5076832;28;20060;-37
2023/08/10 00:29:36;;;;;;;3.22;1.45;;;;;;;14.90;100.00;102089.09;5076054;28;19908;-37
2023/08/10 00:32:02;;;;;;;;;;;;;;;15.03;100.00;102086.19;5076832;28;20096;-37
2023/08/10 00:34:27;;;;;;;4.03;1.80;;;;;;;14.85;100.00;102081.59;5076261;28;19904;-36
2023/08/10 00:36:52;;;;;;;;;;;;;;;15.00;100.00;102088.53;5076387;28;20028;-37
2023/08/10 00:39:17;;;;;;;4.53;1.80;;;;;;;14.91;100.00;102077.13;5075883;28;19908;-37
2023/08/10 00:41:43;;;;;;;3.33;2.10;;;;;;;14.91;100.00;102080.69;5075661;28;20255;-37
2023/08/10 00:44:09;;;;;;;5.78;2.22;;;;;;;14.91;100.00;102085.28;5075496;28;20263;-37
2023/08/10 00:46:34;;;;;;;;;;;;;;;15.06;100.00;102080.25;5076764;28;20353;-37
2023/08/10 00:49:00;;;;;;;5.80;1.75;;;;;;;14.94;100.00;102084.84;5075715;28;20348;-37
2023/08/10 00:51:25;;;;;;;;;;;;;;;15.10;100.00;102083.38;5076179;28;20017;-37
2023/08/10 00:53:51;;;;;;;2.83;1.75;;;;;;;14.85;100.00;102073.44;5076385;28;19904;-37
2023/08/10 00:56:16;;;;;;;;;;;;;;;15.04;100.00;102079.69;5075729;28;20025;-36
2023/08/10 00:58:42;;;;;;;2.75;1.70;;;;;;;14.90;100.00;102078.19;5075456;28;20003;-37
2023/08/10 01:01:07;;;;;;;;;;;;;;;15.06;100.00;102079.44;5075976;28;20453;-36
2023/08/10 01:03:33;;;;;;;3.83;1.90;;;;;;;14.88;100.00;102070.25;5076253;28;19967;-37
2023/08/10 01:06:14;;;;;;;3.67;2.03;;;;;;;14.96;100.00;102082.72;5075648;28;20259;-37
2023/08/10 01:09:10;;;;;;;5.00;2.05;;;;;;;14.90;100.00;102067.28;5075932;28;20391;-36
2023/08/10 01:11:40;;;;;;;3.28;1.92;;;;;;;14.88;100.00;102083.88;5075790;28;20025;-37
2023/08/10 01:14:12;;;;;;;4.03;2.38;;;;;;;14.93;100.00;102078.56;5075545;28;20027;-36
2023/08/10 01:16:41;;;;;;;3.58;1.85;;;;;;;14.80;100.00;102061.56;5075774;28;20025;-37
2023/08/10 01:19:25;;;;;;;3.20;1.98;;;;;;;14.88;100.00;102067.53;5075260;28;20020;-36
2023/08/10 01:22:04;;;;;;;4.38;2.03;;;;;;;14.93;100.00;102075.84;5074630;28;20396;-37
2023/08/10 01:24:36;;;;;;;4.32;1.90;;;;;;;14.96;100.00;102085.44;5075626;28;20024;-37
2023/08/10 01:27:02;;;;;;;4.53;1.95;;;;;;;14.98;100.00;102094.19;5075196;28;20020;-37
2023/08/10 01:29:28;;;;;;;3.90;1.90;;;;;;;14.98;100.00;102085.19;5075398;28;20040;-37
2023/08/10 01:31:54;;;;;;;;;;;;;;;15.11;100.00;102091.31;5075918;28;20350;-37
2023/08/10 01:34:19;;;;;;;3.92;2.03;;;;;;;14.94;100.00;102091.13;5074804;28;20010;-36
2023/08/10 01:36:44;;;;;;;;;;;;;;;15.10;100.00;102095.09;5075495;28;20024;-37
2023/08/10 01:39:10;;;;;;;3.37;2.00;;;;;;;14.86;100.00;102077.81;5075126;28;19974;-37
2023/08/10 01:41:35;;;;;;;4.10;2.17;;;;;;;14.87;100.00;102095.81;5074971;28;20254;-36
2023/08/10 01:44:00;;;;;;;4.35;2.20;;;;;;;14.78;100.00;102083.56;5074555;28;20254;-37
2023/08/10 01:46:27;;;;;;;;;;;;;;;14.97;100.00;102099.88;5074994;28;20137;-37
2023/08/10 01:48:55;;;;;;;2.50;1.75;;;;;;;14.75;100.00;102103.09;5074506;28;19904;-37
2023/08/10 01:51:23;;;;;;;4.63;2.53;;;;;;;14.67;100.00;102089.78;5075055;28;20017;-37
2023/08/10 01:53:50;;;;;;;3.95;2.03;;;;;;;14.60;100.00;102092.59;5074100;28;20016;-37
2023/08/10 01:56:18;;;;;;;4.30;2.42;;;;;;;14.55;100.00;102095.16;5075233;28;20118;-37
2023/08/10 01:58:43;;;;;;;5.00;2.25;;;;;;;14.45;100.00;102081.22;5074099;28;20054;-37
2023/08/10 02:01:09;;;;;;;;;;;;;;;14.67;100.00;102089.78;5075351;28;20437;-37
2023/08/10 02:03:34;;;;;;;4.50;1.90;;;;;;;14.53;100.00;102089.09;5074772;28;19909;-37
2023/08/10 02:05:59;;;;;;;;;;;;;;;14.62;100.00;102086.91;5074677;28;20448;-36
2023/08/10 02:08:24;;;;;;;2.80;2.10;;;;;;;14.38;100.00;102085.91;5074479;28;19908;-36
2023/08/10 02:10:50;;;;;;;4.03;2.13;;;;;;;14.33;100.00;102083.84;5074716;28;20279;-37
2023/08/10 02:13:15;;;;;;;;;;;;;;;14.46;100.00;102099.22;5074920;28;20103;-37
2023/08/10 02:15:42;;;;;;;4.63;2.17;;;;;;;14.25;100.00;102094.19;5074039;28;19934;-37
2023/08/10 02:18:08;;;;;;;4.15;2.25;;;;;;;14.16;100.00;102089.06;5074279;28;20032;-37
2023/08/10 02:20:33;;;;;;;4.38;2.35;;;;;;;14.05;100.00;102076.19;5073708;28;20024;-37
2023/08/10 02:22:59;;;;;;;;;;;;;;;14.28;100.00;102093.75;5074739;28;20529;-37
2023/08/10 02:25:24;;;;;;;5.10;2.20;;;;;;;14.10;100.00;102094.56;5073912;28;19904;-37
2023/08/10 02:27:52;;;;;;;4.47;2.28;;;;;;;14.00;100.00;102099.66;5073991;28;20392;-37
2023/08/10 02:30:18;;;;;;;3.38;2.00;;;;;;;14.00;100.00;102097.78;5074637;28;20027;-37
2023/08/10 02:32:44;;;;;;;5.10;2.55;;;;;;;13.91;100.00;102097.25;5074184;28;20091;-37
2023/08/10 02:35:09;;;;;;;;;;;;;;;14.07;100.00;102101.28;5074268;28;20103;-37
2023/08/10 02:37:35;;;;;;;2.83;2.35;;;;;;;13.86;100.00;102098.97;5073719;28;20370;-37
2023/08/10 02:40:04;;;;;;;4.55;2.40;;;;;;;13.85;100.00;102105.44;5073730;28;20025;-37
2023/08/10 02:42:29;;;;;;;4.78;2.70;;;;;;;13.82;100.00;102105.91;5073715;28;20368;-37
2023/08/10 02:44:55;;;;;;;;;;;;;;;13.95;100.00;102104.94;5073776;28;20103;-37
2023/08/10 02:47:20;;;;;;;4.78;2.53;;;;;;;13.75;100.00;102102.41;5074246;28;19904;-37
2023/08/10 02:49:45;;;;;;;;;;;;;;;13.89;100.00;102109.38;5073737;28;20112;-37
2023/08/10 02:52:11;;;;;;;3.53;2.37;;;;;;;13.74;100.00;102107.00;5073967;28;20382;-37
2023/08/10 02:54:37;;;;;;;3.15;2.20;;;;;;;13.68;100.00;102112.50;5073583;28;20274;-37
2023/08/10 02:57:03;;;;;;;3.55;2.50;;;;;;;13.63;100.00;102108.56;5073596;28;20028;-37
2023/08/10 02:59:28;;;;;;;;;;;;;;;13.79;100.00;102103.63;5074487;28;20085;-37
2023/08/10 03:01:54;;;;;;;2.53;2.13;;;;;;;13.71;100.00;102102.00;5073234;28;19908;-36
2023/08/10 03:04:20;;;;;;;3.70;2.47;;;;;;;13.53;100.00;102100.06;5073207;28;20025;-37
2023/08/10 03:06:45;;;;;;;;;;;;;;;13.80;100.00;102116.16;5073903;28;20048;-36
2023/08/10 03:09:10;;;;;;;5.17;2.40;;;;;;;13.67;100.00;102110.84;5073386;28;20007;-37
2023/08/10 03:11:36;;;;;;;;;;;;;;;13.80;100.00;102117.00;5074383;28;20063;-37
2023/08/10 03:14:02;;;;;;;3.85;2.78;;;;;;;13.61;100.00;102129.66;5073624;28;19908;-36
2023/08/10 03:16:28;;;;;;;4.43;2.60;;;;;;;13.55;100.00;102108.00;5073109;28;20024;-37
2023/08/10 03:18:53;;;;;;;;;;;;;;;13.77;100.00;102130.22;5073639;28;20077;-37
2023/08/10 03:21:19;;;;;;;4.33;2.13;;;;;;;13.63;100.00;102127.59;5073626;28;20367;-36
2023/08/10 03:23:46;;;;;;;2.80;2.40;;;;;;;13.61;100.00;102129.66;5073319;28;20258;-37
2023/08/10 03:26:11;;;;;;;6.97;3.22;;;;;;;13.56;100.00;102131.38;5074063;28;20262;-37
2023/08/10 03:28:37;;;;;;;;;;;;;;;13.73;100.00;102128.97;5073647;28;20024;-37
2023/08/10 03:31:02;;;;;;;5.47;2.80;;;;;;;13.59;100.00;102125.53;5073225;28;19955;-37
2023/08/10 03:33:28;;;;;;;5.00;2.92;;;;;;;13.64;100.00;102128.41;5073185;28;20302;-37
2023/08/10 03:35:53;;;;;;;3.35;2.80;;;;;;;13.63;100.00;102124.03;5073478;28;20039;-37
2023/08/10 03:38:19;;;;;;;3.05;2.42;;;;;;;13.57;100.00;102123.03;5073395;28;20090;-36
2023/08/10 03:40:44;;;;;;;;;;;;;;;13.72;100.00;102120.00;5073608;28;20017;-36
2023/08/10 03:43:09;;;;;;;4.03;2.60;;;;;;;13.63;100.00;102116.72;5073203;28;19948;-36
2023/08/10 03:45:35;;;;;;;;;;;;;;;13.73;100.00;102118.94;5075872;28;20111;-36
2023/08/10 03:48:01;;;;;;;5.20;2.87;;;;;;;13.58;100.00;102123.88;5076836;28;19930;-36
2023/08/10 03:50:27;;;;;;;6.30;2.67;;;;;;;13.56;100.00;102124.06;5077362;28;20350;-36
2023/08/10 03:52:52;;;;;;;;;;;;;;;13.72;100.00;102121.88;5077515;28;20051;-37
2023/08/10 03:55:19;;;;;;;3.37;3.00;;;;;;;13.61;100.00;102118.78;5076910;28;19904;-36
2023/08/10 03:57:45;;;;;;;5.38;2.92;;;;;;;13.57;100.00;102124.94;5076847;28;20247;-37
2023/08/10 04:00:11;;;;;;;;;;;;;;;13.70;100.00;102121.25;5077672;28;20048;-37
2023/08/10 04:02:36;;;;;;;5.72;2.80;;;;;;;13.54;100.00;102123.47;5076629;28;20445;-37
2023/08/10 04:05:06;;;;;;;3.35;2.60;;;;;;;13.56;100.00;102125.94;5076313;28;20103;-37
2023/08/10 04:07:37;;;;;;;5.28;3.00;;;;;;;13.46;100.00;102118.28;5076793;28;20111;-37
2023/08/10 04:10:05;;;;;;;4.80;2.75;;;;;;;13.43;100.00;102117.91;5076710;28;20078;-37
2023/08/10 04:12:34;;;;;;;4.10;2.55;;;;;;;13.49;100.00;102119.75;5076394;28;20096;-37
2023/08/10 04:15:00;;;;;;;4.85;3.13;;;;;;;13.45;100.00;102123.94;5076044;28;20020;-37
2023/08/10 04:17:26;;;;;;;;;;;;;;;13.62;100.00;102131.34;5076759;28;20027;-37
2023/08/10 04:19:52;;;;;;;6.70;2.90;;;;;;;13.50;100.00;102126.84;5076680;28;19908;-37
2023/08/10 04:22:17;;;;;;;4.90;2.53;;;;;;;13.32;100.00;102119.41;5076249;28;20025;-37
2023/08/10 04:24:43;;;;;;;;;;;;;;;13.49;100.00;102136.88;5076558;28;20059;-37
2023/08/10 04:27:08;;;;;;;4.10;2.88;;;;;;;13.31;100.00;102134.88;5076217;28;19911;-37
2023/08/10 04:29:33;;;;;;;4.68;2.75;;;;;;;13.30;100.00;102135.94;5076124;28;20024;-37
2023/08/10 04:31:59;;;;;;;3.75;2.95;;;;;;;13.21;100.00;102123.63;5092117;28;20028;-38
2023/08/10 04:34:24;;;;;;;5.00;2.45;;;;;;;13.24;100.00;102139.53;5076303;28;20035;-38
2023/08/10 04:36:49;;;;;;;3.90;2.88;;;;;;;13.24;100.00;102138.69;5076626;28;20032;-37
2023/08/10 04:39:15;;;;;;;3.50;2.72;;;;;;;13.24;100.00;102136.00;5075855;28;20048;-37
2023/08/10 04:41:40;;;;;;;3.28;2.63;;;;;;;13.28;100.00;102139.94;5076165;28;20498;-37
2023/08/10 04:44:06;;;;;;;3.30;2.72;;;;;;;13.28;100.00;102140.78;5075497;28;20056;-37
2023/08/10 04:46:31;;;;;;;3.65;2.70;;;;;;;13.34;100.00;102147.22;5076320;28;20074;-38
2023/08/10 04:48:56;;;;;;;4.78;2.95;;;;;;;13.31;100.00;102140.31;5075968;28;20055;-38
2023/08/10 04:51:22;;;;;;;3.10;2.80;;;;;;;13.27;100.00;102136.38;5075982;28;20360;-37
2023/08/10 04:53:47;;;;;;;4.93;3.08;;;;;;;13.35;100.00;102148.88;5076414;28;20322;-37
2023/08/10 04:56:13;;;;;;;5.53;2.80;;;;;;;13.35;100.00;102149.69;5076068;28;20441;-37
2023/08/10 04:58:38;;;;;;;4.37;3.63;;;;;;;13.31;100.00;102156.63;5075258;28;20052;-37
2023/08/10 05:01:04;;;;;;;4.60;2.97;;;;;;;13.36;100.00;102153.25;5075858;28;20247;-38
2023/08/10 05:03:29;;;;;;;5.32;2.78;;;;;;;13.38;100.00;102159.31;5076292;28;20261;-38
2023/08/10 05:05:54;;;;;;;4.70;2.92;;;;;;;13.39;100.00;102150.94;5075736;28;20021;-38
2023/08/10 05:08:21;;;;;;;3.72;3.05;;;;;;;13.33;100.00;102138.22;5075952;28;20360;-38
2023/08/10 05:10:47;;;;;;;4.53;2.95;;;;;;;13.44;100.00;102147.56;5074998;28;20426;-38
2023/08/10 05:13:12;;;;;;;;;;;;;;;13.59;100.00;102158.97;5075725;28;20029;-38
2023/08/10 05:15:37;;;;;;;5.03;3.53;;;;;;;13.49;100.00;102145.03;5075224;28;19912;-38
2023/08/10 05:18:03;;;;;;;6.18;3.67;;;;;;;13.57;100.00;102150.22;5075735;28;20271;-37
2023/08/10 05:20:28;;;;;;;4.38;3.28;;;;;;;13.60;100.00;102140.78;5075097;28;20025;-37
2023/08/10 05:22:54;;;;;;;;;;;;;;;13.75;100.00;102148.63;5076180;28;20031;-37
2023/08/10 05:25:20;;;;;;;4.45;3.00;;;;;;;13.68;100.00;102150.56;5075735;28;20279;-37
2023/08/10 05:27:45;;;;;;;5.88;3.35;;;;;;;13.75;100.00;102148.63;5075300;28;20414;-37
2023/08/10 05:30:11;;;;;;;6.55;3.58;;;;;;;13.74;100.00;102152.38;5074612;28;20023;-37
2023/08/10 05:32:39;;;;;;;;;;;;;;;13.88;100.00;102152.06;5075892;28;20039;-37
2023/08/10 05:35:04;;;;;;;;;;;;;;;13.97;100.00;102154.53;5075204;28;19904;-37
2023/08/10 05:37:30;;;;;;;5.93;3.20;;;;;;;13.92;100.00;102155.19;5075350;28;19916;-37
2023/08/10 05:39:56;;;;;;;4.72;3.08;;;;;;;13.99;100.00;102141.53;5074583;28;20449;-37
2023/08/10 05:42:21;;;;;;;;;;;;;;;14.22;100.00;102140.91;5075706;28;20429;-37
2023/08/10 05:44:47;;;;;;;5.68;3.92;;;;;;;14.21;100.00;102150.13;5074591;28;19915;-37
2023/08/10 05:47:12;;;;;;;;;;;;;;;14.38;100.00;102149.31;5075390;28;20448;-37
2023/08/10 05:49:37;;;;;;;6.85;3.95;;;;;;;14.34;100.00;102139.94;5074597;28;19908;-37
2023/08/10 05:52:03;;;;;;;6.03;3.33;;;;;;;14.38;100.00;102141.16;5075428;28;20067;-37
2023/08/10 05:54:29;;;;;;;5.20;4.00;;;;;;;14.47;100.00;102144.41;5074481;28;20016;-37
2023/08/10 05:56:55;;;;;;;;;;;;;;;14.69;100.00;102139.41;5074867;28;20020;-37
2023/08/10 05:59:20;;;;;;;4.88;3.60;;;;;;;14.75;100.00;102140.38;5074960;28;20010;-37
2023/08/10 06:01:47;;;;;;;;;;;;;;;14.94;100.00;102144.75;5074815;28;20480;-37
2023/08/10 06:04:13;;;;;;;6.97;4.00;;;;;;;14.93;100.00;102132.19;5074256;28;19997;-37
2023/08/10 06:06:38;;;;;;;5.38;4.03;;;;;;;15.06;100.00;102142.91;5073956;28;20059;-37
2023/08/10 06:09:04;;;;;;;;;;;;;;;15.29;100.00;102141.38;5074138;28;20029;-37
2023/08/10 06:11:30;;;;;;;5.68;3.50;;;;;;;15.34;100.00;102139.63;5073867;28;20005;-37
2023/08/10 06:13:55;;;;;;;9.43;4.07;;;;;;;15.47;100.00;102144.06;5074898;28;20052;-38
2023/08/10 06:16:21;;;;;;;;;;;;;;;15.74;100.00;102143.69;5074559;28;20135;-38
2023/08/10 06:18:46;;;;;;;7.28;3.50;;;;;;;15.76;100.00;102136.06;5073684;28;19915;-38
2023/08/10 06:21:13;;;;;;;5.43;3.33;;;;;;;15.92;100.00;102135.41;5074630;28;20027;-38
2023/08/10 06:23:38;;;;;;;4.95;3.35;;;;;;;15.95;100.00;102146.66;5073926;28;20023;-37
2023/08/10 06:26:05;;;;;;;5.28;3.20;;;;;;;16.12;100.00;102146.81;5073973;28;20016;-38
2023/08/10 06:28:31;;;;;;;6.07;3.00;;;;;;;16.30;100.00;102139.56;5074163;28;20035;-38
2023/08/10 06:30:56;;;;;;;5.05;3.58;;;;;;;16.41;100.00;102138.75;5073948;28;20369;-38
2023/08/10 06:33:21;;;;;;;;;;;;;;;16.59;100.00;102138.63;5074314;28;20031;-38
2023/08/10 06:35:47;;;;;;;4.40;3.08;;;;;;;16.53;100.00;102139.56;5073856;28;20398;-38
2023/08/10 06:38:12;;;;;;;;;;;;;;;16.73;100.00;102142.75;5074710;28;20024;-38
2023/08/10 06:40:37;;;;;;;5.67;3.27;;;;;;;16.44;100.00;102130.06;5072518;28;19998;-38
2023/08/10 06:43:03;;;;;;;;;;;;;;;16.59;100.00;102129.56;5074447;28;20338;-38
2023/08/10 06:45:28;;;;;;;6.22;3.53;;;;;;;16.39;100.00;102129.94;5073684;28;19908;-37
2023/08/10 06:47:54;;;;;;;;;;;;;;;16.56;100.00;102136.34;5074600;28;20154;-37
2023/08/10 06:50:19;;;;;;;4.50;3.25;;;;;;;16.56;100.00;102130.91;5073629;28;19966;-38
2023/08/10 06:52:45;;;;;;;;;;;;;;;16.72;100.00;102129.34;5074672;28;20475;-38
2023/08/10 06:55:11;;;;;;;7.05;3.17;;;;;;;16.63;100.00;102122.56;5073521;28;19913;-38
2023/08/10 06:57:37;;;;;;;6.45;3.28;;;;;;;16.61;100.00;102130.19;5073784;28;20115;-38
2023/08/10 07:00:06;;;;;;;;;;;;;;;16.79;100.00;102126.47;5074489;28;20139;-38
2023/08/10 07:02:31;;;;;;;5.15;3.28;;;;;;;16.71;100.00;102127.66;5074374;28;19961;-38
2023/08/10 07:04:56;;;;;;;;;;;;;;;16.84;100.00;102127.44;5073694;28;20024;-38
2023/08/10 07:07:21;;;;;;;4.97;2.60;;;;;;;16.80;100.00;102125.44;5073231;28;19915;-38
2023/08/10 07:09:47;;;;;;;;;;;;;;;16.97;100.00;102127.13;5073870;28;20278;-38
2023/08/10 07:12:12;;;;;;;7.28;2.80;;;;;;;16.93;100.00;102131.44;5073676;28;20337;-38
2023/08/10 07:14:37;;;;;;;;;;;;;;;17.09;100.00;102129.84;5073494;28;20020;-38
2023/08/10 07:17:03;;;;;;;3.27;2.30;;;;;;;17.04;100.00;102127.00;5073368;28;19916;-37
2023/08/10 07:19:28;;;;;;;;;;;;;;;17.20;100.00;102126.22;5074012;28;20267;-37
2023/08/10 07:21:55;;;;;;;3.53;2.00;;;;;;;17.14;100.00;102118.19;5077365;28;19908;-38
2023/08/10 07:24:22;;;;;;;4.70;1.98;;;;;;;17.27;100.00;102133.44;5076984;28;20785;-38
2023/08/10 07:26:48;;;;;;;3.30;2.03;;;;;;;17.29;100.00;102134.03;5078109;28;20048;-38
2023/08/10 07:29:13;;;;;;;;;;;;;;;17.44;100.00;102145.25;5077419;28;20076;-37
2023/08/10 07:31:39;;;;;;;2.80;1.52;;;;;;;17.33;94.40;102133.31;5077773;28;19931;-38
2023/08/10 07:34:04;;;;;;;;;;;;;;;17.48;100.00;102139.06;5077470;28;20338;-37
2023/08/10 07:36:29;;;;;;;2.38;1.38;;;;;;;17.45;92.85;102123.13;5077424;28;19912;-38
2023/08/10 07:38:55;;;;;;;;;;;;;;;17.63;100.00;102133.03;5077417;28;20035;-38
2023/08/10 07:41:24;;;;;;;2.13;1.20;;;;;;;17.57;82.90;102124.97;5076731;28;20351;-38
2023/08/10 07:43:49;;;;;;;3.47;1.30;;;;;;;17.64;82.76;102136.59;5076622;28;20039;-37
2023/08/10 07:46:15;;;;;;;2.47;1.40;;;;;;;17.68;83.21;102137.75;5077188;28;20028;-38
2023/08/10 07:48:40;;;;;;;;;;;;;;;17.79;90.77;102136.06;5077282;28;20067;-38
2023/08/10 07:51:08;;;;;;;5.43;1.30;;;;;;;17.72;83.32;102139.75;5076253;28;19912;-38
2023/08/10 07:53:34;;;;;;;2.75;1.10;;;;;;;17.74;81.90;102140.34;5076883;28;20271;-38
2023/08/10 07:55:59;;;;;;;;;;;;;;;17.93;87.62;102143.69;5077157;28;20051;-38
2023/08/10 07:58:25;;;;;;;3.58;1.40;;;;;;;17.96;82.79;102139.63;5075772;28;19958;-38
2023/08/10 08:00:50;;;;;;;;;;;;;;;18.10;87.83;102146.41;5077923;28;20023;-38
2023/08/10 08:03:16;;;;;;;2.50;1.20;;;;;;;18.09;84.20;102142.03;5077490;28;20345;-38
2023/08/10 08:05:41;;;;;;;;;;;;;;;18.18;87.32;102143.25;5076705;28;20024;-38
2023/08/10 08:08:07;;;;;;;1.63;1.00;;;;;;;18.14;78.97;102146.75;5076139;28;19908;-38
2023/08/10 08:10:32;;;;;;;;;;;;;;;18.24;81.31;102146.91;5076872;28;20271;-38
2023/08/10 08:12:59;;;;;;;2.83;1.08;;;;;;;18.21;82.56;102145.50;5075850;28;19912;-38
2023/08/10 08:15:24;;;;;;;2.53;1.38;;;;;;;18.27;78.93;102149.97;5077169;28;20027;-37
2023/08/10 08:18:09;;;;;;;;;;;;;;;18.43;82.16;102144.72;5077334;28;20036;-37
2023/08/10 08:20:35;;;;;;;3.05;1.20;;;;;;;18.48;80.83;102142.03;5076294;28;19908;-37
2023/08/10 08:23:00;;;;;;;;;;;;;;;18.64;84.88;102145.81;5076295;28;20112;-38
2023/08/10 08:25:30;;;;;;;3.10;1.13;;;;;;;18.69;78.22;102132.22;5075862;28;19995;-37
2023/08/10 08:27:56;;;;;;;5.53;1.63;;;;;;;18.77;79.19;102135.34;5058136;28;20036;-37
2023/08/10 08:30:25;;;;;;;;;;;;;;;18.98;81.66;102143.81;5075808;28;20024;-37
2023/08/10 08:32:50;;;;;;;2.28;0.80;;;;;;;19.07;78.24;102134.06;5075521;28;20338;-37
2023/08/10 08:35:15;;;;;;;;;;;;;;;19.26;80.61;102140.84;5076561;28;20067;-37
2023/08/10 08:37:41;;;;;;;1.88;0.90;;;;;;;19.26;75.50;102138.13;5075854;28;19916;-37
2023/08/10 08:40:07;;;;;;;4.95;1.00;;;;;;;19.20;77.10;102139.16;5076238;28;20024;-37
2023/08/10 08:42:33;;;;;;;1.80;0.90;;;;;;;19.21;76.18;102138.06;5076433;28;20403;-38
2023/08/10 08:44:58;;;;;;;;;;;;;;;19.42;76.35;102143.75;5076268;28;20070;-37
2023/08/10 08:47:25;;;;;;;3.28;1.13;;;;;;;19.53;77.10;102142.78;5076136;28;19938;-37
2023/08/10 08:49:50;;;;;;;2.85;0.80;;;;;;;19.62;75.14;102140.41;5076499;28;20036;-37
2023/08/10 08:52:16;;;;;;;;;;;;;;;19.79;79.80;102139.22;5076978;28;20028;-37
2023/08/10 08:54:41;;;;;;;2.63;1.00;;;;;;;19.56;72.49;102114.81;5075681;28;20368;-37
2023/08/10 08:57:07;;;;;;;3.03;0.80;;;;;;;19.60;72.06;102148.09;5075945;28;20021;-37
2023/08/10 08:59:32;;;;;;;3.30;1.02;;;;;;;19.58;80.54;102137.34;5075702;28;20048;-37
2023/08/10 09:01:59;;;;;;;;;;;;;;;19.72;81.33;102132.31;5075932;28;20066;-37
2023/08/10 09:04:24;;;;;;;2.33;0.87;;;;;;;19.63;75.57;102136.59;5075238;28;19908;-37
2023/08/10 09:06:49;;;;;;;1.55;0.90;;;;;;;19.53;74.66;102124.41;5076052;28;20403;-37
2023/08/10 09:09:15;;;;;;;3.08;1.00;;;;;;;19.54;75.90;102125.25;5075877;28;20107;-37
2023/08/10 09:11:40;;;;;;;1.58;1.08;;;;;;;19.56;77.70;102125.78;5076153;28;20059;-37
2023/08/10 09:14:09;;;;;;;3.17;0.98;;;;;;;19.63;79.26;102117.41;5075278;28;20028;-37
2023/08/10 09:16:37;;;;;;;2.10;1.00;;;;;;;19.68;76.32;102122.94;5075231;28;20016;-37
2023/08/10 09:19:02;;;;;;;2.97;1.25;;;;;;;19.70;75.48;102118.00;5075045;28;20012;-38
2023/08/10 09:21:30;;;;;;;;;;;;;;;19.85;78.29;102120.88;5076152;28;20032;-38
2023/08/10 09:23:56;;;;;;;2.78;0.90;;;;;;;19.71;76.45;102117.72;5074757;28;19913;-38
2023/08/10 09:26:22;;;;;;;;;;;;;;;19.85;77.04;102120.03;5075753;28;20029;-38
2023/08/10 09:28:49;;;;;;;1.77;0.90;;;;;;;19.76;75.26;102123.28;5075224;28;19926;-38
2023/08/10 09:31:22;;;;;;;1.67;0.93;;;;;;;19.83;77.45;102127.72;5074992;28;20024;-38
2023/08/10 09:33:52;;;;;;;2.75;1.02;;;;;;;19.83;74.87;102131.28;5075442;28;20044;-38
2023/08/10 09:36:22;;;;;;;2.28;0.93;;;;;;;19.87;76.61;102129.69;5075457;28;20031;-38
2023/08/10 09:38:51;;;;;;;2.80;1.25;;;;;;;19.78;77.06;102118.34;5074685;28;20021;-38
2023/08/10 09:41:19;;;;;;;4.13;1.00;;;;;;;19.80;72.19;102124.38;5075267;28;20455;-38
2023/08/10 09:43:45;;;;;;;3.03;1.23;;;;;;;19.84;71.92;102121.13;5073554;28;20017;-38
2023/08/10 09:46:12;;;;;;;2.75;1.35;;;;;;;19.83;73.62;102117.56;5074533;28;20099;-38
2023/08/10 09:48:42;;;;;;;3.03;1.40;;;;;;;19.90;75.32;102126.38;5074529;28;20031;-38
2023/08/10 09:51:10;;;;;;;2.63;1.17;;;;;;;19.91;76.76;102124.47;5074275;28;20036;-38
2023/08/10 09:53:36;;;;;;;2.28;1.10;;;;;;;20.07;75.05;102137.25;5074425;28;20027;-36
2023/08/10 09:56:02;;;;;;;2.03;1.13;;;;;;;20.12;73.67;102123.56;5074189;28;20070;-37
2023/08/10 09:58:28;;;;;;;1.83;1.00;;;;;;;20.24;75.30;102128.84;5074180;28;20556;-38
2023/08/10 10:00:54;;;;;;;2.25;0.90;;;;;;;20.23;74.15;102118.94;5075144;28;20056;-38
2023/08/10 10:03:21;;;;;;;2.28;1.00;;;;;;;20.26;74.56;102129.41;5073527;28;20021;-38
2023/08/10 10:05:48;;;;;;;1.88;0.95;;;;;;;20.33;77.85;102119.00;5074244;28;20099;-36
2023/08/10 10:08:16;;;;;;;1.40;0.75;;;;;;;20.35;74.27;102126.97;5074751;28;20074;-37
2023/08/10 10:10:43;;;;;;;1.73;0.98;;;;;;;20.33;77.23;102136.31;5073786;28;20016;-37
2023/08/10 10:13:15;;;;;;;3.20;0.88;;;;;;;20.24;73.51;102137.91;5074958;28;20016;-37
2023/08/10 10:15:44;;;;;;;3.83;1.00;;;;;;;20.25;73.50;102125.84;5074358;28;20040;-37
2023/08/10 10:18:11;;;;;;;2.75;1.10;;;;;;;20.33;75.12;102125.31;5074867;28;20103;-37
2023/08/10 10:20:39;;;;;;;2.85;1.05;;;;;;;20.28;72.67;102127.22;5074310;28;20100;-37
2023/08/10 10:23:12;;;;;;;3.83;1.17;;;;;;;20.35;74.59;102132.47;5073981;28;20094;-37
2023/08/10 10:25:38;;;;;;;4.05;1.00;;;;;;;20.38;77.90;102127.28;5073978;28;20029;-37
2023/08/10 10:28:12;;;;;;;2.95;1.00;;;;;;;20.40;75.55;102143.47;5073590;28;20021;-37
2023/08/10 10:31:03;;;;;;;3.17;1.20;;;;;;;20.47;75.52;102142.19;5073894;28;20021;-37
2023/08/10 10:33:29;;;;;;;2.45;0.95;;;;;;;20.47;72.94;102138.63;5073613;28;20051;-37
2023/08/10 10:36:09;;;;;;;2.00;1.00;;;;;;;20.56;76.26;102145.28;5073537;28;20020;-37
2023/08/10 10:38:41;;;;;;;2.75;1.10;;;;;;;20.56;72.81;102134.28;5073982;28;20031;-37
2023/08/10 10:41:12;;;;;;;2.97;1.10;;;;;;;20.67;76.56;102129.66;5073998;28;20021;-37
2023/08/10 10:43:38;;;;;;;3.30;1.05;;;;;;;20.74;77.55;102130.22;5074319;28;20020;-37
2023/08/10 10:46:03;;;;;;;3.45;1.23;;;;;;;20.86;74.08;102122.59;5073636;28;20021;-37
2023/08/10 10:48:34;;;;;;;2.40;1.00;;;;;;;20.74;71.33;102130.22;5073988;28;20046;-37
2023/08/10 10:51:04;;;;;;;2.13;0.95;;;;;;;20.85;74.92;102131.13;5073302;28;20477;-37
2023/08/10 10:53:30;;;;;;;2.10;0.90;;;;;;;20.99;75.25;102126.78;5074294;28;20069;-37
2023/08/10 10:55:56;;;;;;;1.90;1.00;;;;;;;21.05;76.56;102122.94;5073586;28;20411;-37
2023/08/10 10:58:22;;;;;;;3.58;1.05;;;;;;;21.11;73.83;102130.09;5073840;28;20033;-37
2023/08/10 11:00:47;;;;;;;4.30;1.10;;;;;;;21.10;73.05;102120.19;5073546;28;20493;-37
2023/08/10 11:03:13;;;;;;;1.80;1.05;;;;;;;21.23;75.47;102114.19;5073575;28;20039;-37
2023/08/10 11:05:39;;;;;;;3.05;1.20;;;;;;;21.37;72.21;102125.50;5073462;28;20097;-37
2023/08/10 11:08:06;;;;;;;2.13;1.20;;;;;;;21.40;73.12;102124.97;5073473;28;20021;-37
2023/08/10 11:10:35;;;;;;;2.33;1.20;;;;;;;21.51;70.50;102126.63;5073472;28;20025;-37
2023/08/10 11:13:03;;;;;;;3.22;1.40;;;;;;;21.67;72.73;102121.13;5074254;28;20052;-37
2023/08/10 11:15:28;;;;;;;2.45;1.10;;;;;;;21.72;69.27;102121.97;5073444;28;20035;-37
2023/08/10 11:17:54;;;;;;;2.47;1.20;;;;;;;21.70;68.27;102102.16;5073630;28;20456;-37
2023/08/10 11:20:21;;;;;;;2.88;1.17;;;;;;;21.59;77.06;102112.34;5073291;28;20120;-37
2023/08/10 11:22:47;;;;;;;2.60;1.10;;;;;;;21.64;71.04;102106.00;5073334;28;20025;-37
2023/08/10 11:25:15;;;;;;;3.15;1.20;;;;;;;21.88;71.96;102114.53;5073334;28;20024;-37
2023/08/10 11:27:43;;;;;;;2.15;1.02;;;;;;;21.88;70.46;102097.19;5073314;28;20032;-37
2023/08/10 11:30:10;;;;;;;3.25;1.30;;;;;;;22.15;69.90;102111.50;5073242;28;20021;-37
2023/08/10 11:32:40;;;;;;;2.83;1.20;;;;;;;22.21;71.64;102115.91;5074050;28;20033;-37